Goldens Brg, New York
Current Conditions -  °F | °C
As of 4:53 PM on Wednesday 22 Oct 2014 (Local Time) from KDXR Reporting Station
Light Rain Light Rain  
Wind Chill: 51°   Ceiling: 1700
Heat Index: 51°   Visibility: 10mi
Dew Point: 46°   Wind: 12mph
Humidity: 83%   Direction: 10°N
Pressure: 29.87"   Gusts: NA
Location:  41.2988°N, 73.667°W
Report Text: KDXR 222053Z 01010KT 10SM -RA OVC017 11/08 A2987 RMK AO2 SLP114 P0005 60007 T01060078 56018
Loading
Personal Weather Stations






























Interactive Weather Map
Tropical Storm Tracking
New forecast layout! Learn more

10-Day Weather Forecast

Advertisements
Track Severe Weather on mobile